createdAt,value
2023-02-16T00:00:19.712Z,37.70
2023-02-16T00:03:14.120Z,34.90
2023-02-16T00:05:42.364Z,36.50
2023-02-16T00:08:10.220Z,36.90
2023-02-16T00:10:39.479Z,38.10
2023-02-16T00:13:47.153Z,36.90
2023-02-16T00:16:24.650Z,36.10
2023-02-16T00:18:53.334Z,38.00
2023-02-16T00:21:22.143Z,35.40
2023-02-16T00:23:50.299Z,38.40
2023-02-16T00:26:24.601Z,36.00
2023-02-16T00:28:54.896Z,36.80
2023-02-16T00:31:27.880Z,37.70
2023-02-16T00:33:56.612Z,35.30
2023-02-16T00:36:25.297Z,38.00
2023-02-16T00:38:53.275Z,37.40
2023-02-16T00:41:44.136Z,36.80
2023-02-16T00:44:20.112Z,36.50
2023-02-16T00:46:48.309Z,35.70
2023-02-16T00:49:18.497Z,36.10
2023-02-16T00:51:46.897Z,38.70
2023-02-16T00:54:15.385Z,36.60
2023-02-16T00:56:44.046Z,37.50
2023-02-16T00:59:19.686Z,37.00
2023-02-16T01:01:48.073Z,37.30
2023-02-16T01:04:23.589Z,39.90
2023-02-16T01:07:10.493Z,40.60
2023-02-16T01:09:57.066Z,36.80
2023-02-16T01:12:25.173Z,38.70
2023-02-16T01:14:55.659Z,39.60
2023-02-16T01:17:26.254Z,38.70
2023-02-16T01:19:57.041Z,40.40
2023-02-16T01:22:24.869Z,38.70
2023-02-16T01:24:52.900Z,41.10
2023-02-16T01:27:20.839Z,40.20
2023-02-16T01:29:48.589Z,41.20
2023-02-16T01:32:17.247Z,40.00
2023-02-16T01:34:45.234Z,39.60
2023-02-16T01:37:15.855Z,38.80
2023-02-16T01:39:44.898Z,38.70
2023-02-16T01:42:15.496Z,38.10
2023-02-16T01:44:49.778Z,37.00
2023-02-16T01:47:26.256Z,38.30
2023-02-16T01:52:33.092Z,35.50
2023-02-16T01:55:14.024Z,37.80
2023-02-16T01:58:31.425Z,36.80
2023-02-16T02:00:59.172Z,35.20
2023-02-16T02:03:52.660Z,38.40
2023-02-16T02:06:28.009Z,36.80
2023-02-16T02:09:03.601Z,35.60
2023-02-16T02:11:54.061Z,38.50
2023-02-16T02:14:37.998Z,38.60
2023-02-16T02:17:11.250Z,38.10
2023-02-16T02:19:56.605Z,37.80
2023-02-16T02:23:23.454Z,37.50
2023-02-16T02:26:19.358Z,39.30
2023-02-16T02:28:50.724Z,36.90
2023-02-16T02:31:37.929Z,38.30
2023-02-16T02:34:21.304Z,38.20
2023-02-16T02:37:20.578Z,39.10
2023-02-16T02:39:54.681Z,37.90
2023-02-16T02:42:51.166Z,35.70
2023-02-16T02:45:32.309Z,35.40
2023-02-16T02:48:00.321Z,35.70
2023-02-16T02:50:37.446Z,38.00
2023-02-16T02:53:12.379Z,36.60
2023-02-16T02:56:05.668Z,35.30
2023-02-16T02:58:55.386Z,35.70
2023-02-16T03:01:24.692Z,35.60
2023-02-16T03:03:56.182Z,35.80
2023-02-16T03:06:27.791Z,36.60
2023-02-16T03:09:01.227Z,37.50
2023-02-16T03:11:48.636Z,35.80
2023-02-16T03:14:30.128Z,36.30
2023-02-16T03:17:19.721Z,36.60
2023-02-16T03:20:09.792Z,37.30
2023-02-16T03:22:58.316Z,35.20
2023-02-16T03:25:50.070Z,36.50
2023-02-16T03:28:40.300Z,36.30
2023-02-16T03:31:12.946Z,35.20
2023-02-16T03:33:41.814Z,36.20
2023-02-16T03:36:10.159Z,37.40
2023-02-16T03:38:39.544Z,37.50
2023-02-16T03:41:07.353Z,37.00
2023-02-16T03:43:35.272Z,38.70
2023-02-16T03:46:03.399Z,37.80
2023-02-16T03:48:31.695Z,36.40
2023-02-16T03:50:59.527Z,38.50
2023-02-16T03:53:27.416Z,39.30
2023-02-16T03:55:55.353Z,36.40
2023-02-16T03:58:25.302Z,37.00
2023-02-16T04:00:53.581Z,38.80
2023-02-16T04:03:21.644Z,40.20
2023-02-16T04:05:49.535Z,40.70
2023-02-16T04:08:17.690Z,41.20
2023-02-16T04:10:45.658Z,40.00
2023-02-16T04:13:13.835Z,40.00
2023-02-16T04:15:42.338Z,40.40
2023-02-16T04:18:10.278Z,42.60
2023-02-16T04:20:38.365Z,41.10
2023-02-16T04:23:07.019Z,39.60
2023-02-16T04:25:35.108Z,39.40
2023-02-16T04:28:03.036Z,38.50
2023-02-16T04:30:32.459Z,37.70
2023-02-16T04:33:00.669Z,37.60
2023-02-16T04:35:28.620Z,40.00
2023-02-16T04:37:56.565Z,39.00
2023-02-16T04:40:24.386Z,37.90
2023-02-16T04:42:52.419Z,37.70
2023-02-16T04:45:20.685Z,37.10
2023-02-16T04:47:48.782Z,38.60
2023-02-16T04:50:16.821Z,38.70
2023-02-16T04:52:45.129Z,38.40
2023-02-16T04:55:12.904Z,39.50
2023-02-16T04:57:40.803Z,39.70
2023-02-16T05:00:11.844Z,40.00
2023-02-16T05:02:40.065Z,39.90
2023-02-16T05:05:08.403Z,44.30
2023-02-16T05:07:37.143Z,44.90
2023-02-16T05:10:06.544Z,46.30
2023-02-16T05:12:53.455Z,43.60
2023-02-16T05:15:21.717Z,44.70
2023-02-16T05:17:49.704Z,44.60
2023-02-16T05:20:18.273Z,42.20
2023-02-16T05:22:46.459Z,44.00
2023-02-16T05:25:14.360Z,43.10
2023-02-16T05:27:42.202Z,40.50
2023-02-16T05:30:11.160Z,42.10
2023-02-16T05:32:39.037Z,41.10
2023-02-16T05:35:06.984Z,39.50
2023-02-16T05:37:34.899Z,38.80
2023-02-16T05:40:02.760Z,37.80
2023-02-16T05:42:30.924Z,37.50
2023-02-16T05:44:58.878Z,38.90
2023-02-16T05:47:26.667Z,37.30
2023-02-16T05:49:54.609Z,38.70
2023-02-16T05:52:22.620Z,38.50
2023-02-16T05:54:50.447Z,39.50
2023-02-16T05:57:18.460Z,37.40
2023-02-16T05:59:46.529Z,36.80
2023-02-16T06:02:14.922Z,37.20
2023-02-16T06:04:42.998Z,38.00
2023-02-16T06:07:12.049Z,38.00
2023-02-16T06:09:41.741Z,38.10
2023-02-16T06:12:09.572Z,37.90
2023-02-16T06:14:37.488Z,37.40
2023-02-16T06:17:05.451Z,37.20
2023-02-16T06:19:33.422Z,38.00
2023-02-16T06:22:01.300Z,38.70
2023-02-16T06:24:29.605Z,38.90
2023-02-16T06:26:57.678Z,37.10
2023-02-16T06:29:25.650Z,39.50
2023-02-16T06:31:53.508Z,39.80
2023-02-16T06:34:21.544Z,41.00
2023-02-16T06:36:49.421Z,42.70
2023-02-16T06:39:17.339Z,42.70
2023-02-16T06:41:45.204Z,42.90
2023-02-16T06:44:15.380Z,43.90
2023-02-16T06:46:45.930Z,42.60
2023-02-16T06:49:18.206Z,43.00
2023-02-16T06:51:47.803Z,42.90
2023-02-16T06:54:16.543Z,43.10
2023-02-16T06:56:44.687Z,42.00
2023-02-16T06:59:13.545Z,42.10
2023-02-16T07:01:42.971Z,41.30
2023-02-16T07:04:12.183Z,39.70
2023-02-16T07:06:40.106Z,38.20
2023-02-16T07:09:08.247Z,40.10
2023-02-16T07:11:37.108Z,40.60
2023-02-16T07:14:05.008Z,38.40
2023-02-16T07:16:32.812Z,41.80
2023-02-16T07:19:00.752Z,41.80
2023-02-16T07:21:28.635Z,38.10
2023-02-16T07:23:56.570Z,39.50
2023-02-16T07:26:24.628Z,40.60
2023-02-16T07:28:52.740Z,39.70
2023-02-16T07:31:21.095Z,40.10
2023-02-16T07:33:49.273Z,38.30
2023-02-16T07:36:17.078Z,35.40
2023-02-16T07:38:45.210Z,38.00
2023-02-16T07:41:13.489Z,35.80
2023-02-16T07:43:42.989Z,37.20
2023-02-16T07:46:11.460Z,36.00
2023-02-16T07:48:39.788Z,37.10
2023-02-16T07:51:08.358Z,37.20
2023-02-16T07:53:36.380Z,36.20
2023-02-16T07:56:04.772Z,36.40
2023-02-16T07:58:32.838Z,37.70
2023-02-16T08:01:10.323Z,38.50
2023-02-16T08:03:39.119Z,37.00
2023-02-16T08:06:08.793Z,38.30
2023-02-16T08:08:38.061Z,36.90
2023-02-16T08:11:16.282Z,37.40
2023-02-16T08:13:45.838Z,37.20
2023-02-16T08:16:20.133Z,35.60
2023-02-16T08:18:48.695Z,36.60
2023-02-16T08:21:19.562Z,35.30
2023-02-16T08:23:54.220Z,36.60
2023-02-16T08:26:23.984Z,36.40
2023-02-16T08:28:52.922Z,34.50
2023-02-16T08:31:23.747Z,40.30
2023-02-16T08:33:53.841Z,37.20
2023-02-16T08:36:25.139Z,36.70
2023-02-16T08:38:54.576Z,36.90
2023-02-16T08:41:24.581Z,38.40
2023-02-16T08:43:52.432Z,35.10
2023-02-16T08:46:21.800Z,34.80
2023-02-16T08:48:49.692Z,35.90
2023-02-16T08:51:20.032Z,36.80
2023-02-16T08:53:47.839Z,35.80
2023-02-16T08:56:17.000Z,35.00
2023-02-16T08:58:44.948Z,33.10
2023-02-16T09:01:15.358Z,34.70
2023-02-16T09:03:46.385Z,34.10
2023-02-16T09:06:17.268Z,34.20
2023-02-16T09:08:46.689Z,35.80
2023-02-16T09:11:16.452Z,34.80
2023-02-16T09:13:45.083Z,36.00
2023-02-16T09:16:16.471Z,33.60
2023-02-16T09:18:45.606Z,34.00
2023-02-16T09:21:33.035Z,32.80
2023-02-16T09:24:05.355Z,33.90
2023-02-16T09:26:38.547Z,35.00
2023-02-16T09:29:07.327Z,35.80
2023-02-16T09:31:37.547Z,35.00
2023-02-16T09:34:18.501Z,33.80
2023-02-16T09:36:47.468Z,34.90
2023-02-16T09:39:17.176Z,33.10
2023-02-16T09:42:06.852Z,32.80
2023-02-16T09:44:56.748Z,33.40
2023-02-16T09:47:31.160Z,31.40
2023-02-16T09:50:06.452Z,31.50
2023-02-16T09:52:41.036Z,32.80
2023-02-16T09:55:18.169Z,31.60
2023-02-16T09:58:01.341Z,32.10
2023-02-16T10:00:46.942Z,33.50
2023-02-16T10:03:46.020Z,33.60
2023-02-16T10:06:14.810Z,30.30
2023-02-16T10:08:58.816Z,32.80
2023-02-16T10:11:39.104Z,31.50
2023-02-16T10:14:25.053Z,32.20
2023-02-16T10:17:15.418Z,30.70
2023-02-16T10:19:52.884Z,31.40
2023-02-16T10:22:29.246Z,29.20
2023-02-16T10:25:36.000Z,29.80
2023-02-16T10:28:18.242Z,28.30
2023-02-16T10:31:26.626Z,27.80
2023-02-16T10:34:26.737Z,27.10
2023-02-16T10:37:19.737Z,27.80
2023-02-16T10:40:06.229Z,26.50
2023-02-16T10:43:00.831Z,27.80
2023-02-16T10:45:52.726Z,25.50
2023-02-16T10:48:22.466Z,27.20
2023-02-16T10:51:09.342Z,27.30
2023-02-16T10:53:51.577Z,26.90
2023-02-16T10:56:42.926Z,28.50
2023-02-16T10:59:38.840Z,25.80
2023-02-16T11:04:59.731Z,27.20
2023-02-16T11:15:06.431Z,29.00
2023-02-16T11:18:05.053Z,29.30
2023-02-16T11:20:54.074Z,28.90
2023-02-16T11:23:28.207Z,28.50
2023-02-16T11:25:58.350Z,27.10
2023-02-16T11:28:32.331Z,27.10
2023-02-16T11:31:10.265Z,26.30
2023-02-16T11:33:40.472Z,26.70
2023-02-16T11:36:33.708Z,27.20
2023-02-16T11:39:15.620Z,27.50
2023-02-16T11:41:52.012Z,27.80
2023-02-16T11:44:31.942Z,26.80
2023-02-16T11:47:04.865Z,29.20
2023-02-16T11:49:42.258Z,29.80
2023-02-16T11:52:31.893Z,30.30
2023-02-16T11:55:02.208Z,28.90
2023-02-16T11:57:37.468Z,28.50
2023-02-16T12:00:18.426Z,31.50
2023-02-16T12:03:03.245Z,26.80
2023-02-16T12:05:54.870Z,29.30
2023-02-16T12:08:51.969Z,25.20
2023-02-16T12:12:17.553Z,25.40
2023-02-16T12:17:57.040Z,24.40
2023-02-16T12:20:39.981Z,24.90
2023-02-16T12:23:10.691Z,25.60
2023-02-16T12:25:58.959Z,26.40
2023-02-16T12:28:56.293Z,25.40
2023-02-16T12:31:56.763Z,24.10
2023-02-16T12:34:53.701Z,26.00
2023-02-16T12:37:33.837Z,23.90
2023-02-16T12:40:07.837Z,27.50
2023-02-16T12:42:57.132Z,27.30
2023-02-16T12:45:31.708Z,26.00
2023-02-16T12:48:34.101Z,27.50
2023-02-16T12:51:07.378Z,26.90
2023-02-16T12:54:00.351Z,29.40
2023-02-16T12:56:34.699Z,27.00
2023-02-16T12:59:16.757Z,26.50
2023-02-16T13:01:48.316Z,27.10
2023-02-16T13:04:20.104Z,32.30
2023-02-16T13:07:00.164Z,28.10
2023-02-16T13:09:44.725Z,27.20
2023-02-16T13:12:34.864Z,27.30
2023-02-16T13:15:06.688Z,27.70
2023-02-16T13:17:41.513Z,26.60
2023-02-16T13:20:16.819Z,28.90
2023-02-16T13:23:03.009Z,33.10
2023-02-16T13:25:53.511Z,29.70
2023-02-16T13:28:46.122Z,33.50
2023-02-16T13:31:23.401Z,34.30
2023-02-16T13:34:13.021Z,27.80
2023-02-16T13:36:55.318Z,26.30
2023-02-16T13:39:26.529Z,24.60
2023-02-16T13:42:23.867Z,25.00
2023-02-16T13:45:10.355Z,24.70
2023-02-16T13:47:41.057Z,25.50
2023-02-16T13:50:33.995Z,25.30
2023-02-16T13:53:19.034Z,24.90
2023-02-16T13:55:48.207Z,25.30
2023-02-16T13:58:16.296Z,26.50
2023-02-16T14:00:50.851Z,25.00
2023-02-16T14:03:21.706Z,24.10
2023-02-16T14:05:55.862Z,27.20
2023-02-16T14:08:25.580Z,25.30
2023-02-16T14:10:53.637Z,27.10
2023-02-16T14:13:31.321Z,26.80
2023-02-16T14:16:09.038Z,28.00
2023-02-16T14:18:41.076Z,26.10
2023-02-16T14:21:37.919Z,26.00
2023-02-16T14:24:12.680Z,26.10
2023-02-16T14:27:02.957Z,25.10
2023-02-16T14:29:59.441Z,23.50
2023-02-16T14:32:38.748Z,23.60
2023-02-16T14:35:17.164Z,22.80
2023-02-16T14:37:55.440Z,23.60
2023-02-16T14:40:53.504Z,24.70
2023-02-16T14:43:30.479Z,25.10
2023-02-16T14:46:26.466Z,24.30
2023-02-16T14:49:34.713Z,24.60
2023-02-16T14:53:04.593Z,24.60
2023-02-16T14:55:40.769Z,23.50
2023-02-16T14:58:30.683Z,23.60
2023-02-16T15:01:25.296Z,26.00
2023-02-16T15:03:55.680Z,25.60
2023-02-16T15:06:44.582Z,24.80
2023-02-16T15:09:20.768Z,26.80
2023-02-16T15:12:14.486Z,25.00
2023-02-16T15:14:48.502Z,23.90
2023-02-16T15:17:35.559Z,21.80
2023-02-16T15:20:31.743Z,22.20
2023-02-16T15:25:33.025Z,20.70
2023-02-16T15:28:22.593Z,21.90
2023-02-16T15:30:54.615Z,25.30
2023-02-16T15:33:25.446Z,24.60
2023-02-16T15:35:57.370Z,29.40
2023-02-16T15:38:38.218Z,38.00
2023-02-16T15:41:10.288Z,37.10
2023-02-16T15:43:47.768Z,34.10
2023-02-16T15:46:37.174Z,34.80
2023-02-16T15:49:22.471Z,37.00
2023-02-16T15:51:50.319Z,36.20
2023-02-16T15:54:28.811Z,36.90
2023-02-16T15:57:22.758Z,35.70
2023-02-16T15:59:57.180Z,32.40
2023-02-16T16:02:34.765Z,32.20
2023-02-16T16:05:06.482Z,30.50
2023-02-16T16:07:37.725Z,25.80
2023-02-16T16:10:28.679Z,26.80
2023-02-16T16:13:09.969Z,27.40
2023-02-16T16:15:45.070Z,26.90
2023-02-16T16:18:53.450Z,26.60
2023-02-16T16:21:24.089Z,26.20
2023-02-16T16:24:00.155Z,23.40
2023-02-16T16:26:31.787Z,24.10
2023-02-16T16:28:59.985Z,22.50
2023-02-16T16:31:28.258Z,22.60
2023-02-16T16:34:03.134Z,25.10
2023-02-16T16:36:44.847Z,22.50
2023-02-16T16:39:18.924Z,22.30
2023-02-16T16:42:07.830Z,20.40
2023-02-16T16:44:54.732Z,20.70
2023-02-16T16:47:25.336Z,20.50
2023-02-16T16:49:59.578Z,19.60
2023-02-16T16:52:34.608Z,19.50
2023-02-16T16:55:21.516Z,19.00
2023-02-16T16:57:54.948Z,19.50
2023-02-16T17:00:25.766Z,19.70
2023-02-16T17:02:54.041Z,19.70
2023-02-16T17:05:22.216Z,19.90
2023-02-16T17:07:51.993Z,19.30
2023-02-16T17:10:22.132Z,19.10
2023-02-16T17:12:56.757Z,19.20
2023-02-16T17:15:37.865Z,20.60
2023-02-16T17:18:07.304Z,19.20
2023-02-16T17:20:35.410Z,21.40
2023-02-16T17:23:05.054Z,20.30
2023-02-16T17:25:35.048Z,21.40
2023-02-16T17:28:03.822Z,21.70
2023-02-16T17:30:32.365Z,20.80
2023-02-16T17:33:00.465Z,21.80
2023-02-16T17:35:29.766Z,23.00
2023-02-16T17:37:57.630Z,19.90
2023-02-16T17:40:26.241Z,19.70
2023-02-16T17:42:54.148Z,17.90
2023-02-16T17:45:22.779Z,20.60
2023-02-16T17:47:53.090Z,20.20
2023-02-16T17:50:21.327Z,20.20
2023-02-16T17:52:49.385Z,20.90
2023-02-16T17:55:18.928Z,19.70
2023-02-16T17:57:46.888Z,22.60
2023-02-16T18:00:20.266Z,18.90
2023-02-16T18:02:48.365Z,20.70
2023-02-16T18:05:16.504Z,20.60
2023-02-16T18:07:44.729Z,21.00
2023-02-16T18:10:20.937Z,20.10
2023-02-16T18:12:49.082Z,20.00
2023-02-16T18:15:19.483Z,21.00
2023-02-16T18:17:47.478Z,22.10
2023-02-16T18:20:16.421Z,20.00
2023-02-16T18:22:44.540Z,19.20
2023-02-16T18:25:12.703Z,23.70
2023-02-16T18:27:40.799Z,23.60
2023-02-16T18:30:10.111Z,22.90
2023-02-16T18:32:38.268Z,23.80
2023-02-16T18:35:06.526Z,24.40
2023-02-16T18:37:35.315Z,26.20
2023-02-16T18:40:04.622Z,29.40
2023-02-16T18:42:33.229Z,28.70
2023-02-16T18:45:01.241Z,29.70
2023-02-16T18:47:29.439Z,27.80
2023-02-16T18:49:57.468Z,24.90
2023-02-16T18:52:25.583Z,25.10
2023-02-16T18:54:53.954Z,22.40
2023-02-16T18:57:22.804Z,23.50
2023-02-16T18:59:50.723Z,22.10
2023-02-16T19:02:18.681Z,26.40
2023-02-16T19:04:46.838Z,29.60
2023-02-16T19:07:15.148Z,28.90
2023-02-16T19:09:43.069Z,27.80
2023-02-16T19:12:10.944Z,26.30
2023-02-16T19:14:38.857Z,28.90
2023-02-16T19:17:06.861Z,28.00
2023-02-16T19:19:36.200Z,26.40
2023-02-16T19:22:04.271Z,24.80
2023-02-16T19:24:32.288Z,25.90
2023-02-16T19:27:00.251Z,30.10
2023-02-16T19:29:28.306Z,29.00
2023-02-16T19:38:08.483Z,41.50
2023-02-16T19:40:36.523Z,36.20
2023-02-16T19:43:04.688Z,42.90
2023-02-16T19:45:37.340Z,40.60
2023-02-16T19:48:05.667Z,40.60
2023-02-16T19:50:33.786Z,40.60
2023-02-16T19:53:01.713Z,38.40
2023-02-16T19:55:29.777Z,37.80
2023-02-16T19:57:57.690Z,34.80
2023-02-16T20:00:25.536Z,35.20
2023-02-16T20:02:53.740Z,33.50
2023-02-16T20:05:21.852Z,33.40
2023-02-16T20:07:49.673Z,33.60
2023-02-16T20:10:18.009Z,35.00
2023-02-16T20:12:45.970Z,34.10
2023-02-16T20:15:15.473Z,32.20
2023-02-16T20:17:43.353Z,35.10
2023-02-16T20:20:12.412Z,33.60
2023-02-16T20:22:40.271Z,32.60
2023-02-16T20:25:08.576Z,32.80
2023-02-16T20:27:36.958Z,34.00
2023-02-16T20:30:08.953Z,32.40
2023-02-16T20:32:37.272Z,33.50
2023-02-16T20:35:07.572Z,32.30
2023-02-16T20:37:35.626Z,33.00
2023-02-16T20:40:04.483Z,33.10
2023-02-16T20:42:32.557Z,38.00
2023-02-16T20:45:00.634Z,38.70
2023-02-16T20:47:28.643Z,41.40
2023-02-16T20:49:56.582Z,38.90
2023-02-16T20:52:24.650Z,41.00
2023-02-16T20:54:52.728Z,38.70
2023-02-16T20:57:26.752Z,36.10
2023-02-16T20:59:56.185Z,35.70
2023-02-16T21:02:24.744Z,38.80
2023-02-16T21:04:53.126Z,41.00
2023-02-16T21:07:23.511Z,38.70
2023-02-16T21:09:51.875Z,37.70
2023-02-16T21:12:19.758Z,35.10
2023-02-16T21:14:47.637Z,36.20
2023-02-16T21:17:15.797Z,34.20
2023-02-16T21:19:43.925Z,35.70
2023-02-16T21:22:11.880Z,35.00
2023-02-16T21:24:41.014Z,36.50
2023-02-16T21:27:10.140Z,35.60
2023-02-16T21:29:38.952Z,36.20
2023-02-16T21:32:07.225Z,37.40
2023-02-16T21:34:35.878Z,35.20
2023-02-16T21:37:04.409Z,35.80
2023-02-16T21:39:51.065Z,32.50
2023-02-16T21:42:19.098Z,31.60
2023-02-16T21:44:50.101Z,31.20
2023-02-16T21:47:36.980Z,30.80
2023-02-16T21:50:05.695Z,29.50
2023-02-16T21:52:33.521Z,28.20
2023-02-16T21:55:20.338Z,29.80
2023-02-16T21:57:49.532Z,28.50
2023-02-16T22:00:17.761Z,28.30
2023-02-16T22:02:45.991Z,29.80
2023-02-16T22:05:14.049Z,31.20
2023-02-16T22:07:42.191Z,30.70
2023-02-16T22:10:10.734Z,29.70
2023-02-16T22:12:38.685Z,29.20
2023-02-16T22:15:07.367Z,30.40
2023-02-16T22:17:35.437Z,31.30
2023-02-16T22:20:03.810Z,30.50
2023-02-16T22:22:31.819Z,30.20
2023-02-16T22:24:59.785Z,30.40
2023-02-16T22:27:27.707Z,30.40
2023-02-16T22:29:55.679Z,32.50
2023-02-16T22:32:23.710Z,32.60
2023-02-16T22:34:51.628Z,31.30
2023-02-16T22:37:19.597Z,32.50
2023-02-16T22:39:47.616Z,31.30
2023-02-16T22:42:15.552Z,31.90
2023-02-16T22:44:43.625Z,31.80
2023-02-16T22:47:11.566Z,32.00
2023-02-16T22:49:41.695Z,34.00
2023-02-16T22:52:11.542Z,32.30
2023-02-16T22:54:39.472Z,29.80
2023-02-16T22:57:07.501Z,31.70
2023-02-16T22:59:35.861Z,32.10
2023-02-16T23:02:03.893Z,31.00
2023-02-16T23:04:31.841Z,29.50
2023-02-16T23:06:59.839Z,31.90
2023-02-16T23:09:27.800Z,30.80
2023-02-16T23:11:55.773Z,32.60
2023-02-16T23:14:23.665Z,29.80
2023-02-16T23:16:54.652Z,31.60
2023-02-16T23:19:25.480Z,30.90
2023-02-16T23:21:54.533Z,31.50
2023-02-16T23:24:24.147Z,30.70
2023-02-16T23:26:53.124Z,28.80
2023-02-16T23:29:21.481Z,28.70
2023-02-16T23:31:50.386Z,29.30
2023-02-16T23:34:20.080Z,28.40
2023-02-16T23:36:48.425Z,29.30
2023-02-16T23:39:18.628Z,28.60
2023-02-16T23:41:46.989Z,28.50
2023-02-16T23:44:15.133Z,31.10
2023-02-16T23:46:42.966Z,28.80
2023-02-16T23:49:10.993Z,30.50
2023-02-16T23:51:38.987Z,30.80
2023-02-16T23:54:09.280Z,31.20
2023-02-16T23:56:37.113Z,29.10
2023-02-16T23:59:04.939Z,30.30
